Time;durP1;ratioP1;P1;durP2;ratioP2;P2;SDS_P1;SDS_P2;PMS_P1;PMS_P2;Temp;Humidity;BMP_temperature;BMP_pressure;BME280_temperature;BME280_humidity;BME280_pressure;Samples;Min_cycle;Max_cycle;Signal;HPM_P1;HPM_P2
2021/12/13 00:00:48;;;;;;;31.27;20.93;;;9.90;99.90;;;;;;5066216;28;20287;-64
2021/12/13 00:03:24;;;;;;;34.37;21.33;;;9.90;99.90;;;;;;5068591;28;20212;-64
2021/12/13 00:05:56;;;;;;;31.83;21.27;;;10.00;99.90;;;;;;5081584;28;20207;-64
2021/12/13 00:08:29;;;;;;;33.57;22.07;;;9.90;99.90;;;;;;5074178;28;20199;-64
2021/12/13 00:11:00;;;;;;;33.47;20.80;;;9.90;99.90;;;;;;5075654;28;20230;-64
2021/12/13 00:13:40;;;;;;;32.03;22.10;;;9.90;99.90;;;;;;5080254;28;20463;-64
2021/12/13 00:16:10;;;;;;;34.47;22.73;;;9.90;99.90;;;;;;5067204;28;20222;-64
2021/12/13 00:18:43;;;;;;;37.03;23.00;;;10.00;99.90;;;;;;5085258;28;20199;-64
2021/12/13 00:21:19;;;;;;;40.87;23.17;;;10.00;99.90;;;;;;5070179;28;20280;-64
2021/12/13 00:23:54;;;;;;;38.33;23.47;;;10.00;99.90;;;;;;5075094;28;20272;-64
2021/12/13 00:26:28;;;;;;;35.70;22.93;;;10.00;99.90;;;;;;5067302;28;20201;-64
2021/12/13 00:28:59;;;;;;;42.97;24.90;;;9.90;99.90;;;;;;5072385;28;20207;-64
2021/12/13 00:31:40;;;;;;;39.30;23.97;;;9.90;99.90;;;;;;5072971;28;20216;-64
2021/12/13 00:34:22;;;;;;;39.53;24.80;;;10.00;99.90;;;;;;5071776;28;20202;-64
2021/12/13 00:36:56;;;;;;;41.97;24.93;;;10.00;99.90;;;;;;5072073;28;20649;-64
2021/12/13 00:39:29;;;;;;;43.20;25.60;;;10.00;99.90;;;;;;5079897;28;20264;-64
2021/12/13 00:41:58;;;;;;;47.17;26.07;;;9.90;99.90;;;;;;5078667;28;20196;-64
2021/12/13 00:44:31;;;;;;;43.87;26.97;;;9.90;99.90;;;;;;5069565;28;20271;-64
2021/12/13 00:47:05;;;;;;;49.63;26.97;;;9.90;99.90;;;;;;5074571;28;20203;-65
2021/12/13 00:49:39;;;;;;;45.67;26.07;;;9.90;99.90;;;;;;5064620;28;20265;-64
2021/12/13 00:52:09;;;;;;;51.23;27.97;;;9.90;99.90;;;;;;5071891;28;20684;-64
2021/12/13 00:54:42;;;;;;;50.00;27.70;;;9.90;99.90;;;;;;5072805;28;20223;-64
2021/12/13 00:57:37;;;;;;;49.63;28.20;;;9.90;99.90;;;;;;5073172;28;20281;-63
2021/12/13 01:00:10;;;;;;;51.53;27.40;;;9.90;99.90;;;;;;5074321;28;20203;-64
2021/12/13 01:02:44;;;;;;;53.60;28.27;;;9.90;99.90;;;;;;5068646;28;20215;-64
2021/12/13 01:05:18;;;;;;;52.10;27.80;;;9.90;99.90;;;;;;5062505;28;20260;-64
2021/12/13 01:08:11;;;;;;;52.60;27.83;;;9.90;99.90;;;;;;5073359;28;20240;-64
2021/12/13 01:11:12;;;;;;;55.30;28.50;;;9.90;99.90;;;;;;5064025;28;20780;-64
2021/12/13 01:14:04;;;;;;;50.37;27.87;;;9.80;99.90;;;;;;5068013;28;20194;-64
2021/12/13 01:16:51;;;;;;;50.87;27.33;;;9.80;99.90;;;;;;5076153;28;20200;-64
2021/12/13 01:19:46;;;;;;;51.33;28.27;;;9.80;99.90;;;;;;5071477;28;20203;-64
2021/12/13 01:22:39;;;;;;;51.40;27.73;;;9.90;99.90;;;;;;5070637;28;20204;-64
2021/12/13 01:25:20;;;;;;;51.23;27.57;;;9.90;99.90;;;;;;5070560;28;20192;-64
2021/12/13 01:27:55;;;;;;;54.87;29.37;;;9.80;99.90;;;;;;5065757;28;20257;-64
2021/12/13 01:30:31;;;;;;;51.10;27.50;;;9.90;99.90;;;;;;5067991;28;20294;-64
2021/12/13 01:33:04;;;;;;;48.70;27.23;;;9.90;99.90;;;;;;5068080;28;20771;-64
2021/12/13 01:35:36;;;;;;;55.00;27.43;;;9.90;99.90;;;;;;5068967;28;20220;-64
2021/12/13 01:38:10;;;;;;;50.10;27.70;;;9.80;99.90;;;;;;5068351;28;20230;-64
2021/12/13 01:40:45;;;;;;;54.70;27.53;;;9.80;99.90;;;;;;5075511;28;20234;-64
2021/12/13 01:43:18;;;;;;;49.80;27.17;;;9.80;99.90;;;;;;5066042;28;20253;-64
2021/12/13 01:45:49;;;;;;;51.40;26.93;;;9.80;99.90;;;;;;5067256;28;20203;-64
2021/12/13 01:48:22;;;;;;;51.53;27.63;;;9.90;99.90;;;;;;5063823;28;20198;-64
2021/12/13 01:51:04;;;;;;;49.27;26.97;;;9.80;99.90;;;;;;5068788;28;20298;-64
2021/12/13 01:53:39;;;;;;;44.67;25.17;;;9.80;99.90;;;;;;5064992;28;20292;-64
2021/12/13 01:56:36;;;;;;;45.17;26.17;;;9.80;99.90;;;;;;5072626;28;20667;-64
2021/12/13 01:59:16;;;;;;;51.60;27.20;;;9.80;99.90;;;;;;5067756;28;20687;-64
2021/12/13 02:01:45;;;;;;;53.53;27.03;;;9.80;99.90;;;;;;5068251;28;20214;-64
2021/12/13 02:04:15;;;;;;;47.43;25.00;;;9.80;99.90;;;;;;5068415;28;20203;-64
2021/12/13 02:06:48;;;;;;;50.83;26.37;;;9.70;99.90;;;;;;5065087;28;20223;-64
2021/12/13 02:09:20;;;;;;;50.77;25.47;;;9.80;99.90;;;;;;5072009;28;20242;-64
2021/12/13 02:11:53;;;;;;;48.77;25.87;;;9.80;99.90;;;;;;5071326;28;20557;-64
2021/12/13 02:14:27;;;;;;;47.07;24.60;;;9.70;99.90;;;;;;5067610;28;20597;-64
2021/12/13 02:17:00;;;;;;;43.60;24.67;;;9.80;99.90;;;;;;5071191;28;20560;-64
2021/12/13 02:19:39;;;;;;;49.30;24.67;;;9.80;99.90;;;;;;5066925;28;20719;-64
2021/12/13 02:22:26;;;;;;;48.67;25.03;;;9.70;99.90;;;;;;5060497;28;21132;-64
2021/12/13 02:24:57;;;;;;;52.03;25.53;;;9.70;99.90;;;;;;5076731;28;20267;-64
2021/12/13 02:27:28;;;;;;;45.90;24.47;;;9.80;99.90;;;;;;5066160;28;20537;-64
2021/12/13 02:30:03;;;;;;;46.97;24.23;;;9.70;99.90;;;;;;5067418;28;20205;-64
2021/12/13 02:32:35;;;;;;;43.93;23.67;;;9.70;99.90;;;;;;5078146;28;20269;-64
2021/12/13 02:35:06;;;;;;;47.50;23.93;;;9.70;99.90;;;;;;5066184;28;20192;-64
2021/12/13 02:37:37;;;;;;;48.17;23.70;;;9.70;99.90;;;;;;5052261;28;20220;-64
2021/12/13 02:40:07;;;;;;;42.53;23.53;;;9.70;99.90;;;;;;5068178;28;20234;-64
2021/12/13 02:42:36;;;;;;;43.97;22.10;;;9.70;99.90;;;;;;5066841;28;20200;-64
2021/12/13 02:45:14;;;;;;;41.83;22.77;;;9.70;99.90;;;;;;5079377;28;20272;-64
2021/12/13 02:47:51;;;;;;;46.23;22.73;;;9.70;99.90;;;;;;5069431;28;20214;-64
2021/12/13 02:50:27;;;;;;;37.67;21.10;;;9.70;99.90;;;;;;5065318;28;20196;-64
2021/12/13 02:52:59;;;;;;;42.47;21.47;;;9.70;99.90;;;;;;5066553;28;20245;-64
2021/12/13 02:55:30;;;;;;;39.07;21.23;;;9.70;99.90;;;;;;5068799;28;20254;-64
2021/12/13 02:58:04;;;;;;;38.13;21.33;;;9.70;99.90;;;;;;5068772;28;20195;-64
2021/12/13 03:00:37;;;;;;;36.60;20.63;;;9.70;99.90;;;;;;5067761;28;20208;-64
2021/12/13 03:03:11;;;;;;;41.20;21.20;;;9.70;99.90;;;;;;5069300;28;20199;-64
2021/12/13 03:05:42;;;;;;;45.00;22.57;;;9.60;99.90;;;;;;5064868;28;20196;-64
2021/12/13 03:08:18;;;;;;;45.97;21.80;;;9.70;99.90;;;;;;5071999;28;20911;-64
2021/12/13 03:10:51;;;;;;;41.43;20.53;;;9.70;99.90;;;;;;5068801;28;20240;-64
2021/12/13 03:13:20;;;;;;;37.97;20.17;;;9.70;99.90;;;;;;5079806;28;20958;-64
2021/12/13 03:16:00;;;;;;;37.37;19.87;;;9.70;99.90;;;;;;5069309;28;20223;-64
2021/12/13 03:18:42;;;;;;;38.33;20.17;;;9.70;99.90;;;;;;5072018;28;20237;-64
2021/12/13 03:21:50;;;;;;;39.80;20.57;;;9.70;99.90;;;;;;5062615;28;20286;-63
2021/12/13 03:24:30;;;;;;;41.27;20.37;;;9.70;99.90;;;;;;5070528;28;20204;-64
2021/12/13 03:27:42;;;;;;;40.13;19.97;;;9.70;99.90;;;;;;5069542;28;20231;-64
2021/12/13 03:30:15;;;;;;;40.23;19.97;;;9.60;99.90;;;;;;4984141;28;20666;-64
2021/12/13 03:32:53;;;;;;;40.67;20.13;;;9.60;99.90;;;;;;5039941;28;20696;-64
2021/12/13 03:35:26;;;;;;;35.30;19.93;;;9.70;99.90;;;;;;5070340;28;21332;-64
2021/12/13 03:37:59;;;;;;;40.80;19.40;;;9.70;99.90;;;;;;5061695;28;21129;-64
2021/12/13 03:40:32;;;;;;;40.67;19.17;;;9.70;99.90;;;;;;5072515;28;20256;-64
2021/12/13 03:43:04;;;;;;;35.37;19.63;;;9.70;99.90;;;;;;5086723;28;20200;-64
2021/12/13 03:45:39;;;;;;;40.53;19.30;;;9.60;99.90;;;;;;5063185;28;20243;-64
2021/12/13 03:48:10;;;;;;;38.90;19.37;;;9.60;99.90;;;;;;5069948;28;20202;-64
2021/12/13 03:50:41;;;;;;;37.87;19.13;;;9.60;99.90;;;;;;5064596;28;20204;-64
2021/12/13 03:53:13;;;;;;;38.33;19.67;;;9.60;99.90;;;;;;5073113;28;20196;-63
2021/12/13 03:55:45;;;;;;;37.40;19.23;;;9.70;99.90;;;;;;5066919;28;20829;-65
2021/12/13 03:58:19;;;;;;;41.90;20.37;;;9.70;99.90;;;;;;5068011;28;20600;-64
2021/12/13 04:00:55;;;;;;;40.73;19.83;;;9.70;99.90;;;;;;5066913;28;20298;-64
2021/12/13 04:03:25;;;;;;;40.37;20.07;;;9.60;99.90;;;;;;5067173;28;20206;-64
2021/12/13 04:05:56;;;;;;;38.37;19.83;;;9.60;99.90;;;;;;5066159;28;20757;-64
2021/12/13 04:08:25;;;;;;;37.00;19.60;;;9.70;99.90;;;;;;5059429;28;20708;-64
2021/12/13 04:10:57;;;;;;;39.00;20.37;;;9.70;99.90;;;;;;5066505;28;20200;-64
2021/12/13 04:13:29;;;;;;;43.00;20.50;;;9.60;99.90;;;;;;5065214;28;20237;-64
2021/12/13 04:16:07;;;;;;;44.60;21.20;;;9.60;99.90;;;;;;5062839;28;20191;-64
2021/12/13 04:19:06;;;;;;;41.60;20.10;;;9.60;99.90;;;;;;5064843;28;20199;-64
2021/12/13 04:21:42;;;;;;;41.70;19.93;;;9.60;99.90;;;;;;5065730;28;20287;-64
2021/12/13 04:24:13;;;;;;;47.43;20.93;;;9.60;99.90;;;;;;5064510;28;20786;-64
2021/12/13 04:26:47;;;;;;;41.23;20.07;;;9.60;99.90;;;;;;5079451;28;20215;-64
2021/12/13 04:29:19;;;;;;;43.23;20.90;;;9.60;99.90;;;;;;5073692;28;20200;-64
2021/12/13 04:31:49;;;;;;;41.20;21.20;;;9.60;99.90;;;;;;5071947;28;20570;-64
2021/12/13 04:34:17;;;;;;;42.50;19.97;;;9.60;99.90;;;;;;5073928;28;20249;-64
2021/12/13 04:37:06;;;;;;;42.93;21.20;;;9.60;99.90;;;;;;5072934;28;20197;-64
2021/12/13 04:39:38;;;;;;;45.43;21.57;;;9.70;99.90;;;;;;5065411;28;20232;-64
2021/12/13 04:42:13;;;;;;;46.37;20.97;;;9.60;99.90;;;;;;5074035;28;20214;-64
2021/12/13 04:44:50;;;;;;;42.83;20.37;;;9.60;99.90;;;;;;5082446;28;20224;-64
2021/12/13 04:47:23;;;;;;;41.97;20.50;;;9.60;99.90;;;;;;5067912;28;20269;-64
2021/12/13 04:50:00;;;;;;;45.53;21.63;;;9.60;99.90;;;;;;5067829;28;20207;-64
2021/12/13 04:52:32;;;;;;;46.30;20.77;;;9.60;99.90;;;;;;5072969;28;20196;-64
2021/12/13 04:55:04;;;;;;;45.70;21.07;;;9.60;99.90;;;;;;5072612;28;20207;-64
2021/12/13 04:57:34;;;;;;;42.43;21.33;;;9.60;99.90;;;;;;5067071;28;20202;-64
2021/12/13 05:00:09;;;;;;;41.97;20.80;;;9.60;99.90;;;;;;5063099;28;20223;-64
2021/12/13 05:02:40;;;;;;;46.00;21.00;;;9.60;99.90;;;;;;5069870;28;20199;-64
2021/12/13 05:05:09;;;;;;;39.60;20.50;;;9.60;99.90;;;;;;5068626;28;20226;-64
2021/12/13 05:07:41;;;;;;;42.53;20.60;;;9.60;99.90;;;;;;5068154;28;20196;-64
2021/12/13 05:10:11;;;;;;;42.23;20.70;;;9.60;99.90;;;;;;5070988;28;20234;-64
2021/12/13 05:12:42;;;;;;;37.63;19.27;;;9.60;99.90;;;;;;5071819;28;20235;-64
2021/12/13 05:15:13;;;;;;;41.87;20.07;;;9.60;99.90;;;;;;5070465;28;20222;-64
2021/12/13 05:17:45;;;;;;;38.30;19.70;;;9.60;99.90;;;;;;5070038;28;20195;-64
2021/12/13 05:20:20;;;;;;;39.57;19.57;;;9.50;99.90;;;;;;5067445;28;20188;-64
2021/12/13 05:22:52;;;;;;;38.23;19.13;;;9.60;99.90;;;;;;5073091;28;20200;-64
2021/12/13 05:25:27;;;;;;;35.63;17.60;;;9.60;99.90;;;;;;5072055;28;20307;-64
2021/12/13 05:28:04;;;;;;;34.83;18.73;;;9.60;99.90;;;;;;5065439;28;20225;-64
2021/12/13 05:30:35;;;;;;;34.50;18.13;;;9.50;99.90;;;;;;5067385;28;20191;-64
2021/12/13 05:33:06;;;;;;;34.40;17.70;;;9.50;99.90;;;;;;5069982;28;20253;-64
2021/12/13 05:35:40;;;;;;;32.53;16.80;;;9.50;99.90;;;;;;5072880;28;20195;-64
2021/12/13 05:38:11;;;;;;;33.10;18.00;;;9.50;99.90;;;;;;5070898;28;20288;-64
2021/12/13 05:40:44;;;;;;;35.97;18.17;;;9.50;99.90;;;;;;5069858;28;20254;-64
2021/12/13 05:43:19;;;;;;;32.43;17.73;;;9.50;99.90;;;;;;5061068;28;20191;-64
2021/12/13 05:45:52;;;;;;;29.50;16.57;;;9.50;99.90;;;;;;5071720;28;20221;-64
2021/12/13 05:48:24;;;;;;;35.70;18.47;;;9.50;99.90;;;;;;5074516;28;20184;-64
2021/12/13 05:50:55;;;;;;;28.83;16.00;;;9.50;99.90;;;;;;5066286;28;20279;-64
2021/12/13 05:53:27;;;;;;;30.10;15.97;;;9.50;99.90;;;;;;5069811;28;20200;-64
2021/12/13 05:56:03;;;;;;;31.60;17.30;;;9.50;99.90;;;;;;5065626;28;20678;-64
2021/12/13 05:58:42;;;;;;;30.80;16.13;;;9.40;99.90;;;;;;5070311;28;20203;-64
2021/12/13 06:01:16;;;;;;;32.80;15.87;;;9.40;99.90;;;;;;5066337;28;20219;-64
2021/12/13 06:04:31;;;;;;;31.50;16.00;;;9.50;99.90;;;;;;5069091;28;20203;-64
2021/12/13 06:07:41;;;;;;;30.33;15.83;;;9.40;99.90;;;;;;5063972;28;20288;-64
2021/12/13 06:10:15;;;;;;;30.10;15.13;;;9.40;99.90;;;;;;5067744;28;20184;-63
2021/12/13 06:12:51;;;;;;;30.10;15.77;;;9.40;99.90;;;;;;5070040;28;20199;-64
2021/12/13 06:15:29;;;;;;;26.13;14.90;;;9.40;99.90;;;;;;5069823;28;20274;-64
2021/12/13 06:18:14;;;;;;;29.07;15.27;;;9.40;99.90;;;;;;5066548;28;20290;-64
2021/12/13 06:20:48;;;;;;;27.90;14.40;;;9.40;99.90;;;;;;5065822;28;20199;-64
2021/12/13 06:23:19;;;;;;;28.10;15.37;;;9.40;99.90;;;;;;5067542;28;20211;-64
2021/12/13 06:25:59;;;;;;;30.00;14.93;;;9.40;99.90;;;;;;5084985;28;20267;-64
2021/12/13 06:28:30;;;;;;;27.27;14.87;;;9.40;99.90;;;;;;5070357;28;20723;-64
2021/12/13 06:31:06;;;;;;;28.43;14.80;;;9.30;99.90;;;;;;5073595;28;20203;-64
2021/12/13 06:33:47;;;;;;;26.50;14.10;;;9.30;99.90;;;;;;5076172;28;20695;-64
2021/12/13 06:36:23;;;;;;;29.50;14.87;;;9.30;99.90;;;;;;5064497;28;20897;-64
2021/12/13 06:38:52;;;;;;;28.57;14.87;;;9.30;99.90;;;;;;5069771;28;20207;-64
2021/12/13 06:41:40;;;;;;;26.80;14.00;;;9.40;99.90;;;;;;5062967;28;20244;-64
2021/12/13 06:44:17;;;;;;;28.47;14.67;;;9.40;99.90;;;;;;5067051;28;20232;-64
2021/12/13 06:46:54;;;;;;;25.07;13.50;;;9.30;99.90;;;;;;5063680;28;20211;-64
2021/12/13 06:49:28;;;;;;;24.73;13.30;;;9.30;99.90;;;;;;5068482;28;20244;-64
2021/12/13 06:52:00;;;;;;;25.60;14.73;;;9.30;99.90;;;;;;5081225;28;20245;-64
2021/12/13 06:54:35;;;;;;;21.23;12.80;;;9.30;99.90;;;;;;5064710;28;20219;-64
2021/12/13 06:57:08;;;;;;;21.50;12.40;;;9.30;99.90;;;;;;5069111;28;20183;-64
2021/12/13 06:59:47;;;;;;;22.87;12.97;;;9.40;99.90;;;;;;5071219;28;20201;-64
2021/12/13 07:02:20;;;;;;;21.60;12.20;;;9.40;99.90;;;;;;5066997;28;20281;-64
2021/12/13 07:05:04;;;;;;;24.73;12.50;;;9.40;99.90;;;;;;5078165;28;20603;-64
2021/12/13 07:07:37;;;;;;;26.93;13.20;;;9.30;99.90;;;;;;5067345;28;20240;-64
2021/12/13 07:10:11;;;;;;;21.50;11.43;;;9.40;99.90;;;;;;5077650;28;20279;-64
2021/12/13 07:12:50;;;;;;;20.40;12.03;;;9.40;99.90;;;;;;5069319;28;20290;-64
2021/12/13 07:15:32;;;;;;;22.33;12.17;;;9.30;99.90;;;;;;5083997;28;20545;-64
2021/12/13 07:18:17;;;;;;;22.37;12.20;;;9.30;99.90;;;;;;5072729;28;20198;-64
2021/12/13 07:20:49;;;;;;;21.23;12.20;;;9.30;99.90;;;;;;5067517;28;20222;-64
2021/12/13 07:23:18;;;;;;;22.03;12.70;;;9.40;99.90;;;;;;5073223;28;20703;-64
2021/12/13 07:25:52;;;;;;;23.13;12.13;;;9.40;99.90;;;;;;5062749;28;20247;-64
2021/12/13 07:28:36;;;;;;;24.33;12.27;;;9.40;99.90;;;;;;5070600;28;20196;-64
2021/12/13 07:31:07;;;;;;;18.80;11.80;;;9.40;99.90;;;;;;5075581;28;20193;-64
2021/12/13 07:33:41;;;;;;;19.17;11.97;;;9.40;99.90;;;;;;5067644;28;20274;-64
2021/12/13 07:36:22;;;;;;;19.67;11.97;;;9.40;99.90;;;;;;5065119;28;20188;-64
2021/12/13 07:38:53;;;;;;;19.83;12.17;;;9.40;99.90;;;;;;5061107;28;20199;-64
2021/12/13 07:41:22;;;;;;;22.50;12.00;;;9.30;99.90;;;;;;5060835;28;20245;-64
2021/12/13 07:43:50;;;;;;;18.67;11.50;;;9.30;99.90;;;;;;5066244;28;20277;-64
2021/12/13 07:46:30;;;;;;;20.97;12.63;;;9.30;99.90;;;;;;5064528;28;20297;-64
2021/12/13 07:49:04;;;;;;;18.77;11.70;;;9.30;99.90;;;;;;5063977;28;20525;-64
2021/12/13 07:51:35;;;;;;;19.87;12.53;;;9.30;99.90;;;;;;5062695;28;20703;-65
2021/12/13 07:54:07;;;;;;;20.40;12.40;;;9.30;99.90;;;;;;5079121;28;20200;-65
2021/12/13 07:56:44;;;;;;;17.17;11.40;;;9.30;99.90;;;;;;5061245;28;20204;-64
2021/12/13 07:59:16;;;;;;;19.70;11.93;;;9.40;99.90;;;;;;5061584;28;20215;-64
2021/12/13 08:01:48;;;;;;;20.70;11.60;;;9.40;99.90;;;;;;5067426;28;20292;-64
2021/12/13 08:04:22;;;;;;;21.67;12.70;;;9.40;99.90;;;;;;5067646;28;20273;-64
2021/12/13 08:06:53;;;;;;;17.93;11.77;;;9.30;99.90;;;;;;5066610;28;20271;-64
2021/12/13 08:09:24;;;;;;;25.47;13.80;;;9.30;99.90;;;;;;5068132;28;20257;-64
2021/12/13 08:11:59;;;;;;;25.97;14.93;;;9.30;99.90;;;;;;5085159;28;20207;-64
2021/12/13 08:14:30;;;;;;;23.07;13.97;;;9.30;99.90;;;;;;5066306;28;20199;-64
2021/12/13 08:17:09;;;;;;;23.83;13.23;;;9.30;99.90;;;;;;5070197;28;20227;-64
2021/12/13 08:19:41;;;;;;;19.63;13.50;;;9.30;99.90;;;;;;5075276;28;20203;-64
2021/12/13 08:22:13;;;;;;;43.47;26.87;;;9.40;99.90;;;;;;5065966;28;20196;-64
2021/12/13 08:24:46;;;;;;;40.97;26.63;;;9.30;99.90;;;;;;5082516;28;20253;-64
2021/12/13 08:27:17;;;;;;;22.67;14.07;;;9.30;99.90;;;;;;5067031;28;20251;-64
2021/12/13 08:29:46;;;;;;;24.63;14.20;;;9.30;99.90;;;;;;5063264;28;20200;-64
2021/12/13 08:32:17;;;;;;;22.53;15.13;;;9.40;99.90;;;;;;5065774;28;20261;-64
2021/12/13 08:34:51;;;;;;;21.63;14.23;;;9.40;99.90;;;;;;5067501;28;20204;-64
2021/12/13 08:37:25;;;;;;;19.77;13.13;;;9.40;99.90;;;;;;5067797;28;20274;-64
2021/12/13 08:39:59;;;;;;;21.47;11.97;;;9.40;99.90;;;;;;5070304;28;20238;-64
2021/12/13 08:42:30;;;;;;;21.97;12.73;;;9.40;99.90;;;;;;5068734;28;20257;-64
2021/12/13 08:45:05;;;;;;;23.57;14.30;;;9.40;99.90;;;;;;5066606;28;20260;-64
2021/12/13 08:47:40;;;;;;;20.50;12.70;;;9.50;99.90;;;;;;5057365;28;20684;-64
2021/12/13 08:50:16;;;;;;;21.73;13.90;;;9.40;99.90;;;;;;5072456;28;20200;-64
2021/12/13 08:52:47;;;;;;;23.67;16.63;;;9.40;99.90;;;;;;5069123;28;20238;-64
2021/12/13 08:55:28;;;;;;;19.20;12.83;;;9.40;99.90;;;;;;5074520;28;20733;-64
2021/12/13 08:58:10;;;;;;;21.37;14.33;;;9.50;99.90;;;;;;5069601;28;20316;-64
2021/12/13 09:00:51;;;;;;;17.67;11.73;;;9.50;99.90;;;;;;5074544;28;20199;-64
2021/12/13 09:03:41;;;;;;;20.00;12.97;;;9.40;99.90;;;;;;5068483;28;20198;-64
2021/12/13 09:06:27;;;;;;;18.63;12.60;;;9.40;99.90;;;;;;5068944;28;20204;-64
2021/12/13 09:09:01;;;;;;;16.87;11.10;;;9.50;99.90;;;;;;5066562;28;20606;-64
2021/12/13 09:11:34;;;;;;;19.00;12.70;;;9.50;99.90;;;;;;5068088;28;20200;-64
2021/12/13 09:14:14;;;;;;;16.60;10.37;;;9.50;99.90;;;;;;5087215;28;20252;-65
2021/12/13 09:16:53;;;;;;;15.20;10.40;;;9.50;99.90;;;;;;5070208;28;20210;-64
2021/12/13 09:19:25;;;;;;;16.07;11.47;;;9.60;99.90;;;;;;5067105;28;20204;-64
2021/12/13 09:21:59;;;;;;;15.03;10.70;;;9.50;99.90;;;;;;5075361;28;20200;-64
2021/12/13 09:24:39;;;;;;;18.20;10.20;;;9.50;99.90;;;;;;5071227;28;20199;-64
2021/12/13 09:27:16;;;;;;;15.07;10.77;;;9.50;99.90;;;;;;5063537;28;20306;-64
2021/12/13 09:29:55;;;;;;;18.40;10.40;;;9.60;99.90;;;;;;5074142;28;20222;-64
2021/12/13 09:32:33;;;;;;;19.13;11.43;;;9.60;99.90;;;;;;5067511;28;20321;-64
2021/12/13 09:35:30;;;;;;;16.33;12.23;;;9.60;99.90;;;;;;5066938;28;20205;-64
2021/12/13 09:38:04;;;;;;;18.10;10.97;;;9.60;99.90;;;;;;5063265;28;20619;-64
2021/12/13 09:40:39;;;;;;;14.30;9.80;;;9.60;99.90;;;;;;5064905;28;20236;-64
2021/12/13 09:43:08;;;;;;;14.53;10.47;;;9.60;99.90;;;;;;5068789;28;20219;-64
2021/12/13 09:45:40;;;;;;;13.50;9.87;;;9.60;99.90;;;;;;5070425;28;20228;-64
2021/12/13 09:48:20;;;;;;;14.77;11.20;;;9.60;99.90;;;;;;5071041;28;20244;-64
2021/12/13 09:50:53;;;;;;;15.60;10.93;;;9.60;99.90;;;;;;5070879;28;20223;-64
2021/12/13 09:53:27;;;;;;;23.27;14.93;;;9.70;99.90;;;;;;5070172;28;20748;-64
2021/12/13 09:55:56;;;;;;;14.63;10.90;;;9.70;99.90;;;;;;5074418;28;20672;-64
2021/12/13 09:58:33;;;;;;;17.20;13.03;;;9.70;99.90;;;;;;5063974;28;20279;-64
2021/12/13 10:01:08;;;;;;;14.83;10.33;;;9.70;99.90;;;;;;5068786;28;20195;-64
2021/12/13 10:03:48;;;;;;;12.67;9.63;;;9.70;99.90;;;;;;5069913;28;20207;-64
2021/12/13 10:06:19;;;;;;;13.80;10.13;;;9.70;99.90;;;;;;5072709;28;20657;-64
2021/12/13 10:08:55;;;;;;;14.53;10.07;;;9.70;99.90;;;;;;5076470;28;20261;-64
2021/12/13 10:11:27;;;;;;;11.03;9.30;;;9.70;99.90;;;;;;5072686;28;20199;-64
2021/12/13 10:13:57;;;;;;;14.10;10.00;;;9.80;99.90;;;;;;5068287;28;20200;-64
2021/12/13 10:16:31;;;;;;;11.03;8.63;;;9.70;99.90;;;;;;5064782;28;20306;-64
2021/12/13 10:19:04;;;;;;;14.17;9.40;;;9.70;99.90;;;;;;5068945;28;20905;-64
2021/12/13 10:21:37;;;;;;;13.43;9.50;;;9.70;99.90;;;;;;5061394;28;20196;-64
2021/12/13 10:24:11;;;;;;;14.53;9.33;;;9.70;99.90;;;;;;5064594;28;20753;-64
2021/12/13 10:26:41;;;;;;;13.40;8.83;;;9.70;99.90;;;;;;5053850;28;20695;-64
2021/12/13 10:29:24;;;;;;;12.87;8.73;;;9.70;99.90;;;;;;5062357;28;20216;-64
2021/12/13 10:31:59;;;;;;;10.37;8.80;;;9.70;99.90;;;;;;5069075;28;20192;-64
2021/12/13 10:34:32;;;;;;;73.07;34.80;;;9.80;99.90;;;;;;5073757;28;20196;-64
2021/12/13 10:37:04;;;;;;;111.60;47.27;;;9.80;99.90;;;;;;5073311;28;20227;-64
2021/12/13 10:39:36;;;;;;;277.07;114.53;;;9.80;99.90;;;;;;5066504;28;20227;-64
2021/12/13 10:42:09;;;;;;;42.47;24.47;;;9.80;99.90;;;;;;5068468;28;20187;-64
2021/12/13 10:44:43;;;;;;;21.00;14.67;;;9.80;99.90;;;;;;5067961;28;20508;-64
2021/12/13 10:47:17;;;;;;;14.07;9.93;;;9.80;99.90;;;;;;5062661;28;20210;-64
2021/12/13 10:49:48;;;;;;;14.23;10.50;;;9.80;99.90;;;;;;5067486;28;20251;-64
2021/12/13 10:52:21;;;;;;;23.07;16.13;;;9.80;99.90;;;;;;5062861;28;20444;-64
2021/12/13 10:54:54;;;;;;;73.50;47.27;;;9.80;99.90;;;;;;5066436;28;20283;-64
2021/12/13 10:57:26;;;;;;;11.07;9.27;;;9.90;99.90;;;;;;5065707;28;20200;-65
2021/12/13 10:59:58;;;;;;;48.93;31.90;;;9.90;99.90;;;;;;5060481;28;20196;-64
2021/12/13 11:02:30;;;;;;;41.13;26.07;;;9.90;99.90;;;;;;5064018;28;20622;-64
2021/12/13 11:05:01;;;;;;;28.27;22.73;;;9.90;99.90;;;;;;5063227;28;20919;-64
2021/12/13 11:07:30;;;;;;;12.23;10.40;;;9.90;99.90;;;;;;5063798;28;20293;-64
2021/12/13 11:10:02;;;;;;;10.30;8.43;;;9.90;99.90;;;;;;5061796;28;20598;-64
2021/12/13 11:12:35;;;;;;;8.57;7.77;;;9.90;99.90;;;;;;5065121;28;20253;-64
2021/12/13 11:15:10;;;;;;;11.50;8.33;;;10.00;99.90;;;;;;5059957;28;20291;-64
2021/12/13 11:17:40;;;;;;;11.10;8.17;;;10.00;99.90;;;;;;5059304;28;20231;-64
2021/12/13 11:20:15;;;;;;;9.63;6.97;;;10.00;99.90;;;;;;5053803;28;20451;-64
2021/12/13 11:22:45;;;;;;;9.43;7.20;;;10.10;99.90;;;;;;5063390;28;20198;-64
2021/12/13 11:25:19;;;;;;;10.10;7.90;;;10.10;99.90;;;;;;5063097;28;20199;-64
2021/12/13 11:27:48;;;;;;;11.63;8.33;;;10.10;99.90;;;;;;5063060;28;20192;-64
2021/12/13 11:30:20;;;;;;;11.83;7.57;;;10.10;99.90;;;;;;5076998;28;20196;-65
2021/12/13 11:33:38;;;;;;;14.00;7.90;;;10.10;99.90;;;;;;5065912;28;20208;-64
2021/12/13 11:36:50;;;;;;;10.73;7.80;;;10.10;99.90;;;;;;5068667;28;20207;-64
2021/12/13 11:39:49;;;;;;;10.40;7.50;;;10.10;99.90;;;;;;5070347;28;20228;-64
2021/12/13 11:42:45;;;;;;;11.73;7.53;;;10.10;99.90;;;;;;5067018;28;20199;-64
2021/12/13 11:45:45;;;;;;;13.67;7.80;;;10.10;99.90;;;;;;5083603;28;20191;-64
2021/12/13 11:48:33;;;;;;;11.53;7.13;;;10.10;99.90;;;;;;5084583;28;20199;-64
2021/12/13 11:51:26;;;;;;;14.57;8.40;;;10.10;99.90;;;;;;5071744;28;20782;-64
2021/12/13 11:54:20;;;;;;;8.10;7.30;;;10.20;99.90;;;;;;5073189;28;20280;-65
2021/12/13 11:57:08;;;;;;;8.70;7.67;;;10.10;99.90;;;;;;5068910;28;20956;-64
2021/12/13 11:59:52;;;;;;;7.33;6.63;;;10.20;99.90;;;;;;5062679;28;20192;-64
2021/12/13 12:02:34;;;;;;;8.67;7.20;;;10.20;99.90;;;;;;5066232;28;20192;-64
2021/12/13 12:06:03;;;;;;;8.70;7.43;;;10.20;99.90;;;;;;5072255;28;20200;-64
2021/12/13 12:08:51;;;;;;;8.00;7.20;;;10.30;99.90;;;;;;5066274;28;20205;-64
2021/12/13 12:11:44;;;;;;;8.30;7.13;;;10.20;99.90;;;;;;5064240;28;20623;-65
2021/12/13 12:14:13;;;;;;;9.43;7.03;;;10.20;99.90;;;;;;5067464;28;20273;-64
2021/12/13 12:16:46;;;;;;;8.43;7.00;;;10.20;99.90;;;;;;5072626;28;20745;-65
2021/12/13 12:19:21;;;;;;;8.00;7.20;;;10.20;99.90;;;;;;5068781;28;20639;-64
2021/12/13 12:21:54;;;;;;;8.80;7.03;;;10.20;99.90;;;;;;5073786;28;20237;-64
2021/12/13 12:24:25;;;;;;;9.17;7.00;;;10.20;99.90;;;;;;5074833;28;20401;-65
2021/12/13 12:26:57;;;;;;;8.90;6.63;;;10.30;99.90;;;;;;5086433;28;20192;-64
2021/12/13 12:29:29;;;;;;;7.73;6.33;;;10.40;99.90;;;;;;5065764;28;20235;-64
2021/12/13 12:32:02;;;;;;;8.50;6.97;;;10.30;99.90;;;;;;5071802;28;20195;-64
2021/12/13 12:34:33;;;;;;;7.63;6.83;;;10.30;99.90;;;;;;5070614;28;20212;-64
2021/12/13 12:37:31;;;;;;;8.70;6.80;;;10.30;99.90;;;;;;5068071;28;20741;-64
2021/12/13 12:40:21;;;;;;;7.70;6.90;;;10.30;99.90;;;;;;5067267;28;20228;-64
2021/12/13 12:42:54;;;;;;;9.50;6.90;;;10.20;99.90;;;;;;5071148;28;20211;-64
2021/12/13 12:45:29;;;;;;;11.73;7.27;;;10.30;99.90;;;;;;5068768;28;20196;-64
2021/12/13 12:48:12;;;;;;;46.57;27.00;;;10.30;99.90;;;;;;5068214;28;20211;-64
2021/12/13 12:50:46;;;;;;;32.60;19.37;;;10.30;99.90;;;;;;5063548;28;20220;-64
2021/12/13 12:53:18;;;;;;;9.37;7.33;;;10.30;99.90;;;;;;5066813;28;20218;-64
2021/12/13 12:55:50;;;;;;;47.97;27.77;;;10.30;99.90;;;;;;5062818;28;20250;-64
2021/12/13 12:58:24;;;;;;;58.83;32.87;;;10.30;99.90;;;;;;5069064;28;20208;-64
2021/12/13 13:00:54;;;;;;;170.03;80.53;;;10.30;99.90;;;;;;5072597;28;20218;-64
2021/12/13 13:03:28;;;;;;;54.43;31.30;;;10.30;99.90;;;;;;5062532;28;20220;-64
2021/12/13 13:06:04;;;;;;;16.37;12.10;;;10.30;99.90;;;;;;5065347;28;20203;-64
2021/12/13 13:08:35;;;;;;;9.30;7.80;;;10.30;99.90;;;;;;5070695;28;20658;-64
2021/12/13 13:11:30;;;;;;;10.23;9.00;;;10.20;99.90;;;;;;5067356;28;20728;-65
2021/12/13 13:14:10;;;;;;;31.47;20.20;;;10.30;99.90;;;;;;5074501;28;20279;-64
2021/12/13 13:16:43;;;;;;;45.63;34.07;;;10.30;99.90;;;;;;5065811;28;20242;-64
2021/12/13 13:19:27;;;;;;;18.23;14.60;;;10.30;99.90;;;;;;5078377;28;20804;-64
2021/12/13 13:21:58;;;;;;;38.93;29.10;;;10.30;99.90;;;;;;5069879;28;20196;-64
2021/12/13 13:24:50;;;;;;;26.63;20.70;;;10.30;99.90;;;;;;5068559;28;20686;-64